Rechercher aéroport 
image banner adimage banner adimage banner ad
image banner ad

A24 - California Pines

Situé à Alturas, United States

ICAO - A24, IATA -

Données fournies par Airmate  

Information générale

Coordonnées: N41°24'44" W120°41'2"
Élévation : 4389 feet MSL.
Variation magnétique : 17° East
Voir autres Aéroports à California

Données opérationnelles

Special qualification required
Heure actuelle UTC:
Heure actuelle locale:
Météo à : KAAT - Alturas Muni ( 13 km )
METAR: KAAT 251255Z AUTO 00000KT 6SM HZ BKN070 10/01 A3014 RMK AO2 SLP160 T01000011
Voir NOTAMs / SUP AIP / TFR affectant cet aéroport [VIEW]
Fréquences de communication: [VIEW]

Pistes:

Identifiant RWYQFULongueur (ft)Largeur (ft)SurfaceLDA (ft)
05415960ASPH
23415960ASPH

Coordonnées de l'aéroport

Adresse: Alturas United States

Vue satellite de A24